sensor_id;sensor_type;location;lat;lon;timestamp;P1;durP1;ratioP1;P2;durP2;ratioP2
27839;SDS011;15207;42.182;24.308;2023-06-24T00:01:22;13.75;;;9.98;;
27839;SDS011;15207;42.182;24.308;2023-06-24T00:03:48;12.35;;;8.40;;
27839;SDS011;15207;42.182;24.308;2023-06-24T00:06:18;14.30;;;10.05;;
27839;SDS011;15207;42.182;24.308;2023-06-24T00:08:50;14.45;;;9.38;;
27839;SDS011;15207;42.182;24.308;2023-06-24T00:11:15;14.70;;;9.60;;
27839;SDS011;15207;42.182;24.308;2023-06-24T00:13:42;13.45;;;9.23;;
27839;SDS011;15207;42.182;24.308;2023-06-24T00:16:08;15.05;;;9.60;;
27839;SDS011;15207;42.182;24.308;2023-06-24T00:18:34;14.40;;;9.50;;
27839;SDS011;15207;42.182;24.308;2023-06-24T00:21:02;12.25;;;8.98;;
27839;SDS011;15207;42.182;24.308;2023-06-24T00:23:29;14.55;;;10.15;;
27839;SDS011;15207;42.182;24.308;2023-06-24T00:25:59;12.20;;;8.90;;
27839;SDS011;15207;42.182;24.308;2023-06-24T00:28:25;14.00;;;9.75;;
27839;SDS011;15207;42.182;24.308;2023-06-24T00:30:51;14.32;;;9.70;;
27839;SDS011;15207;42.182;24.308;2023-06-24T00:33:17;15.13;;;10.20;;
27839;SDS011;15207;42.182;24.308;2023-06-24T00:35:44;16.45;;;10.13;;
27839;SDS011;15207;42.182;24.308;2023-06-24T00:38:10;16.00;;;10.15;;
27839;SDS011;15207;42.182;24.308;2023-06-24T00:40:36;14.07;;;9.57;;
27839;SDS011;15207;42.182;24.308;2023-06-24T00:43:03;13.30;;;9.45;;
27839;SDS011;15207;42.182;24.308;2023-06-24T00:45:29;14.85;;;9.40;;
27839;SDS011;15207;42.182;24.308;2023-06-24T00:47:55;15.10;;;9.60;;
27839;SDS011;15207;42.182;24.308;2023-06-24T00:50:22;17.85;;;10.63;;
27839;SDS011;15207;42.182;24.308;2023-06-24T00:52:47;12.15;;;8.82;;
27839;SDS011;15207;42.182;24.308;2023-06-24T00:55:15;16.50;;;9.90;;
27839;SDS011;15207;42.182;24.308;2023-06-24T01:00:08;12.30;;;8.95;;
27839;SDS011;15207;42.182;24.308;2023-06-24T01:02:35;13.35;;;9.45;;
27839;SDS011;15207;42.182;24.308;2023-06-24T01:05:02;16.00;;;9.20;;
27839;SDS011;15207;42.182;24.308;2023-06-24T01:07:32;16.13;;;10.07;;
27839;SDS011;15207;42.182;24.308;2023-06-24T01:10:01;15.00;;;9.20;;
27839;SDS011;15207;42.182;24.308;2023-06-24T01:12:27;13.95;;;8.95;;
27839;SDS011;15207;42.182;24.308;2023-06-24T01:14:53;13.50;;;9.05;;
27839;SDS011;15207;42.182;24.308;2023-06-24T01:17:21;13.70;;;8.80;;
27839;SDS011;15207;42.182;24.308;2023-06-24T01:20:20;14.25;;;9.80;;
27839;SDS011;15207;42.182;24.308;2023-06-24T01:34:01;14.00;;;9.20;;
27839;SDS011;15207;42.182;24.308;2023-06-24T01:36:31;13.85;;;9.60;;
27839;SDS011;15207;42.182;24.308;2023-06-24T01:39:03;14.33;;;9.90;;
27839;SDS011;15207;42.182;24.308;2023-06-24T01:41:31;13.88;;;8.68;;
27839;SDS011;15207;42.182;24.308;2023-06-24T01:44:01;13.63;;;9.70;;
27839;SDS011;15207;42.182;24.308;2023-06-24T01:48:55;14.00;;;9.10;;
27839;SDS011;15207;42.182;24.308;2023-06-24T01:51:27;13.55;;;9.50;;
27839;SDS011;15207;42.182;24.308;2023-06-24T01:54:00;18.55;;;10.25;;
27839;SDS011;15207;42.182;24.308;2023-06-24T01:56:29;14.05;;;9.65;;
27839;SDS011;15207;42.182;24.308;2023-06-24T01:59:00;13.10;;;9.00;;
27839;SDS011;15207;42.182;24.308;2023-06-24T02:01:28;14.80;;;9.07;;
27839;SDS011;15207;42.182;24.308;2023-06-24T02:03:57;15.27;;;8.83;;
27839;SDS011;15207;42.182;24.308;2023-06-24T02:06:26;15.47;;;8.73;;
27839;SDS011;15207;42.182;24.308;2023-06-24T02:08:53;16.30;;;9.60;;
27839;SDS011;15207;42.182;24.308;2023-06-24T02:11:21;15.15;;;10.13;;
27839;SDS011;15207;42.182;24.308;2023-06-24T02:13:48;14.10;;;9.80;;
27839;SDS011;15207;42.182;24.308;2023-06-24T02:16:17;15.75;;;9.77;;
27839;SDS011;15207;42.182;24.308;2023-06-24T02:18:43;14.20;;;9.40;;
27839;SDS011;15207;42.182;24.308;2023-06-24T02:21:09;12.40;;;9.15;;
27839;SDS011;15207;42.182;24.308;2023-06-24T02:23:37;14.40;;;10.30;;
27839;SDS011;15207;42.182;24.308;2023-06-24T02:26:03;15.50;;;9.50;;
27839;SDS011;15207;42.182;24.308;2023-06-24T02:28:31;17.75;;;9.85;;
27839;SDS011;15207;42.182;24.308;2023-06-24T02:30:58;14.73;;;9.93;;
27839;SDS011;15207;42.182;24.308;2023-06-24T02:33:25;14.70;;;10.10;;
27839;SDS011;15207;42.182;24.308;2023-06-24T02:35:51;16.38;;;10.15;;
27839;SDS011;15207;42.182;24.308;2023-06-24T02:38:20;15.98;;;10.55;;
27839;SDS011;15207;42.182;24.308;2023-06-24T02:40:45;15.55;;;9.80;;
27839;SDS011;15207;42.182;24.308;2023-06-24T02:43:11;13.40;;;9.80;;
27839;SDS011;15207;42.182;24.308;2023-06-24T02:45:37;12.60;;;9.10;;
27839;SDS011;15207;42.182;24.308;2023-06-24T02:48:04;20.47;;;10.10;;
27839;SDS011;15207;42.182;24.308;2023-06-24T02:50:31;13.85;;;9.38;;
27839;SDS011;15207;42.182;24.308;2023-06-24T02:52:58;14.75;;;9.95;;
27839;SDS011;15207;42.182;24.308;2023-06-24T02:55:24;14.45;;;8.80;;
27839;SDS011;15207;42.182;24.308;2023-06-24T02:57:51;14.60;;;9.50;;
27839;SDS011;15207;42.182;24.308;2023-06-24T03:00:18;14.52;;;9.88;;
27839;SDS011;15207;42.182;24.308;2023-06-24T03:02:45;14.40;;;9.73;;
27839;SDS011;15207;42.182;24.308;2023-06-24T03:05:13;16.30;;;10.20;;
27839;SDS011;15207;42.182;24.308;2023-06-24T03:07:40;13.80;;;9.40;;
27839;SDS011;15207;42.182;24.308;2023-06-24T03:10:07;15.20;;;9.30;;
27839;SDS011;15207;42.182;24.308;2023-06-24T03:12:33;17.23;;;9.65;;
27839;SDS011;15207;42.182;24.308;2023-06-24T03:14:58;12.80;;;9.20;;
27839;SDS011;15207;42.182;24.308;2023-06-24T03:17:25;14.45;;;9.40;;
27839;SDS011;15207;42.182;24.308;2023-06-24T03:19:51;14.70;;;9.40;;
27839;SDS011;15207;42.182;24.308;2023-06-24T03:22:17;15.90;;;9.20;;
27839;SDS011;15207;42.182;24.308;2023-06-24T03:24:43;13.20;;;9.50;;
27839;SDS011;15207;42.182;24.308;2023-06-24T03:27:08;13.70;;;9.30;;
27839;SDS011;15207;42.182;24.308;2023-06-24T03:29:34;15.90;;;9.70;;
27839;SDS011;15207;42.182;24.308;2023-06-24T03:32:00;15.60;;;9.98;;
27839;SDS011;15207;42.182;24.308;2023-06-24T03:34:25;19.75;;;10.45;;
27839;SDS011;15207;42.182;24.308;2023-06-24T03:36:52;15.43;;;10.15;;
27839;SDS011;15207;42.182;24.308;2023-06-24T03:39:21;15.23;;;10.60;;
27839;SDS011;15207;42.182;24.308;2023-06-24T03:41:47;15.00;;;10.25;;
27839;SDS011;15207;42.182;24.308;2023-06-24T03:44:13;16.40;;;10.60;;
27839;SDS011;15207;42.182;24.308;2023-06-24T03:46:38;15.30;;;9.55;;
27839;SDS011;15207;42.182;24.308;2023-06-24T03:49:04;17.25;;;10.30;;
27839;SDS011;15207;42.182;24.308;2023-06-24T03:51:30;12.95;;;9.30;;
27839;SDS011;15207;42.182;24.308;2023-06-24T03:53:56;17.70;;;10.20;;
27839;SDS011;15207;42.182;24.308;2023-06-24T03:56:21;12.80;;;9.20;;
27839;SDS011;15207;42.182;24.308;2023-06-24T03:58:47;15.70;;;10.10;;
27839;SDS011;15207;42.182;24.308;2023-06-24T04:01:14;15.00;;;10.00;;
27839;SDS011;15207;42.182;24.308;2023-06-24T04:03:39;17.05;;;10.25;;
27839;SDS011;15207;42.182;24.308;2023-06-24T04:06:05;15.10;;;9.65;;
27839;SDS011;15207;42.182;24.308;2023-06-24T04:08:30;14.20;;;9.60;;
27839;SDS011;15207;42.182;24.308;2023-06-24T04:10:56;14.55;;;9.82;;
27839;SDS011;15207;42.182;24.308;2023-06-24T04:13:24;13.43;;;9.02;;
27839;SDS011;15207;42.182;24.308;2023-06-24T04:15:49;13.80;;;8.70;;
27839;SDS011;15207;42.182;24.308;2023-06-24T04:18:15;12.50;;;8.00;;
27839;SDS011;15207;42.182;24.308;2023-06-24T04:20:41;11.50;;;8.40;;
27839;SDS011;15207;42.182;24.308;2023-06-24T04:23:06;10.30;;;7.40;;
27839;SDS011;15207;42.182;24.308;2023-06-24T04:25:34;10.35;;;7.45;;
27839;SDS011;15207;42.182;24.308;2023-06-24T04:28:00;14.07;;;7.73;;
27839;SDS011;15207;42.182;24.308;2023-06-24T04:30:25;10.30;;;7.03;;
27839;SDS011;15207;42.182;24.308;2023-06-24T04:32:51;14.65;;;7.60;;
27839;SDS011;15207;42.182;24.308;2023-06-24T04:35:17;12.23;;;7.73;;
27839;SDS011;15207;42.182;24.308;2023-06-24T04:37:42;10.98;;;7.65;;
27839;SDS011;15207;42.182;24.308;2023-06-24T04:40:08;14.20;;;7.80;;
27839;SDS011;15207;42.182;24.308;2023-06-24T04:45:00;10.30;;;6.97;;
27839;SDS011;15207;42.182;24.308;2023-06-24T04:47:26;9.95;;;6.60;;
27839;SDS011;15207;42.182;24.308;2023-06-24T04:49:52;11.10;;;7.10;;
27839;SDS011;15207;42.182;24.308;2023-06-24T04:52:17;9.50;;;6.70;;
27839;SDS011;15207;42.182;24.308;2023-06-24T04:54:43;10.30;;;7.40;;
27839;SDS011;15207;42.182;24.308;2023-06-24T04:57:09;11.50;;;6.40;;
27839;SDS011;15207;42.182;24.308;2023-06-24T04:59:47;11.35;;;7.30;;
27839;SDS011;15207;42.182;24.308;2023-06-24T05:02:13;11.65;;;7.20;;
27839;SDS011;15207;42.182;24.308;2023-06-24T05:04:38;14.32;;;6.70;;
27839;SDS011;15207;42.182;24.308;2023-06-24T05:07:04;10.60;;;6.75;;
27839;SDS011;15207;42.182;24.308;2023-06-24T05:09:29;11.20;;;7.10;;
27839;SDS011;15207;42.182;24.308;2023-06-24T05:11:55;13.30;;;7.45;;
27839;SDS011;15207;42.182;24.308;2023-06-24T05:14:20;11.20;;;7.32;;
27839;SDS011;15207;42.182;24.308;2023-06-24T05:16:46;11.63;;;7.05;;
27839;SDS011;15207;42.182;24.308;2023-06-24T05:19:11;10.77;;;6.32;;
27839;SDS011;15207;42.182;24.308;2023-06-24T05:21:37;9.80;;;6.32;;
27839;SDS011;15207;42.182;24.308;2023-06-24T05:24:02;12.95;;;6.65;;
27839;SDS011;15207;42.182;24.308;2023-06-24T05:26:28;9.20;;;7.10;;
27839;SDS011;15207;42.182;24.308;2023-06-24T05:28:54;10.10;;;7.47;;
27839;SDS011;15207;42.182;24.308;2023-06-24T05:31:19;11.55;;;6.55;;
27839;SDS011;15207;42.182;24.308;2023-06-24T05:33:45;11.90;;;6.85;;
27839;SDS011;15207;42.182;24.308;2023-06-24T05:36:11;11.40;;;7.25;;
27839;SDS011;15207;42.182;24.308;2023-06-24T05:38:37;10.50;;;7.20;;
27839;SDS011;15207;42.182;24.308;2023-06-24T05:41:02;13.80;;;6.60;;
27839;SDS011;15207;42.182;24.308;2023-06-24T05:45:54;10.70;;;7.60;;
27839;SDS011;15207;42.182;24.308;2023-06-24T05:50:45;11.40;;;7.00;;
27839;SDS011;15207;42.182;24.308;2023-06-24T05:53:10;11.45;;;6.60;;
27839;SDS011;15207;42.182;24.308;2023-06-24T05:55:36;11.10;;;6.35;;
27839;SDS011;15207;42.182;24.308;2023-06-24T05:58:02;10.30;;;6.60;;
27839;SDS011;15207;42.182;24.308;2023-06-24T06:00:27;9.70;;;6.55;;
27839;SDS011;15207;42.182;24.308;2023-06-24T06:02:53;8.90;;;6.28;;
27839;SDS011;15207;42.182;24.308;2023-06-24T06:05:19;10.40;;;6.20;;
27839;SDS011;15207;42.182;24.308;2023-06-24T06:07:45;10.10;;;6.50;;
27839;SDS011;15207;42.182;24.308;2023-06-24T06:10:10;11.20;;;6.40;;
27839;SDS011;15207;42.182;24.308;2023-06-24T06:12:36;11.20;;;6.00;;
27839;SDS011;15207;42.182;24.308;2023-06-24T06:15:02;8.90;;;6.20;;
27839;SDS011;15207;42.182;24.308;2023-06-24T06:17:27;9.40;;;6.35;;
27839;SDS011;15207;42.182;24.308;2023-06-24T06:22:18;9.43;;;6.57;;
27839;SDS011;15207;42.182;24.308;2023-06-24T06:24:44;11.15;;;5.95;;
27839;SDS011;15207;42.182;24.308;2023-06-24T06:27:10;11.73;;;6.82;;
27839;SDS011;15207;42.182;24.308;2023-06-24T06:29:36;10.43;;;5.95;;
27839;SDS011;15207;42.182;24.308;2023-06-24T06:32:02;9.35;;;6.05;;
27839;SDS011;15207;42.182;24.308;2023-06-24T06:34:28;9.23;;;6.13;;
27839;SDS011;15207;42.182;24.308;2023-06-24T06:36:53;10.83;;;6.03;;
27839;SDS011;15207;42.182;24.308;2023-06-24T06:39:19;8.70;;;5.80;;
27839;SDS011;15207;42.182;24.308;2023-06-24T06:41:44;10.00;;;5.95;;
27839;SDS011;15207;42.182;24.308;2023-06-24T06:44:10;14.10;;;6.10;;
27839;SDS011;15207;42.182;24.308;2023-06-24T06:46:35;11.45;;;5.85;;
27839;SDS011;15207;42.182;24.308;2023-06-24T06:49:01;7.95;;;5.40;;
27839;SDS011;15207;42.182;24.308;2023-06-24T06:51:27;8.75;;;5.50;;
27839;SDS011;15207;42.182;24.308;2023-06-24T06:53:52;8.00;;;4.90;;
27839;SDS011;15207;42.182;24.308;2023-06-24T06:56:28;8.00;;;5.35;;
27839;SDS011;15207;42.182;24.308;2023-06-24T07:01:26;7.15;;;5.75;;
27839;SDS011;15207;42.182;24.308;2023-06-24T07:06:18;7.95;;;5.82;;
27839;SDS011;15207;42.182;24.308;2023-06-24T07:08:44;8.20;;;5.30;;
27839;SDS011;15207;42.182;24.308;2023-06-24T07:11:10;9.10;;;5.35;;
27839;SDS011;15207;42.182;24.308;2023-06-24T07:13:35;9.67;;;6.43;;
27839;SDS011;15207;42.182;24.308;2023-06-24T07:16:01;7.60;;;5.30;;
27839;SDS011;15207;42.182;24.308;2023-06-24T07:18:26;10.35;;;6.20;;
27839;SDS011;15207;42.182;24.308;2023-06-24T07:20:55;8.55;;;5.65;;
27839;SDS011;15207;42.182;24.308;2023-06-24T07:23:21;8.50;;;5.85;;
27839;SDS011;15207;42.182;24.308;2023-06-24T07:25:47;7.35;;;5.65;;
27839;SDS011;15207;42.182;24.308;2023-06-24T07:28:13;7.40;;;5.53;;
27839;SDS011;15207;42.182;24.308;2023-06-24T07:30:39;10.70;;;5.40;;
27839;SDS011;15207;42.182;24.308;2023-06-24T07:33:06;7.90;;;5.40;;
27839;SDS011;15207;42.182;24.308;2023-06-24T07:37:58;7.10;;;5.10;;
27839;SDS011;15207;42.182;24.308;2023-06-24T07:40:24;9.20;;;5.20;;
27839;SDS011;15207;42.182;24.308;2023-06-24T07:42:49;7.90;;;5.75;;
27839;SDS011;15207;42.182;24.308;2023-06-24T07:45:15;6.80;;;5.25;;
27839;SDS011;15207;42.182;24.308;2023-06-24T07:47:40;6.80;;;5.35;;
27839;SDS011;15207;42.182;24.308;2023-06-24T07:50:06;7.05;;;4.95;;
27839;SDS011;15207;42.182;24.308;2023-06-24T07:52:34;10.00;;;5.10;;
27839;SDS011;15207;42.182;24.308;2023-06-24T07:54:59;7.45;;;5.00;;
27839;SDS011;15207;42.182;24.308;2023-06-24T07:57:26;7.40;;;5.00;;
27839;SDS011;15207;42.182;24.308;2023-06-24T07:59:52;7.97;;;4.95;;
27839;SDS011;15207;42.182;24.308;2023-06-24T08:02:19;7.60;;;5.40;;
27839;SDS011;15207;42.182;24.308;2023-06-24T08:04:45;8.13;;;5.95;;
27839;SDS011;15207;42.182;24.308;2023-06-24T08:07:11;7.55;;;5.60;;
27839;SDS011;15207;42.182;24.308;2023-06-24T08:09:37;7.50;;;5.80;;
27839;SDS011;15207;42.182;24.308;2023-06-24T08:12:03;8.30;;;5.70;;
27839;SDS011;15207;42.182;24.308;2023-06-24T08:14:29;9.50;;;5.75;;
27839;SDS011;15207;42.182;24.308;2023-06-24T08:16:54;7.90;;;5.35;;
27839;SDS011;15207;42.182;24.308;2023-06-24T08:19:20;14.55;;;6.25;;
27839;SDS011;15207;42.182;24.308;2023-06-24T08:21:45;6.75;;;5.20;;
27839;SDS011;15207;42.182;24.308;2023-06-24T08:24:11;8.10;;;5.40;;
27839;SDS011;15207;42.182;24.308;2023-06-24T08:26:36;8.15;;;5.20;;
27839;SDS011;15207;42.182;24.308;2023-06-24T08:29:02;9.25;;;5.30;;
27839;SDS011;15207;42.182;24.308;2023-06-24T08:31:28;9.80;;;6.40;;
27839;SDS011;15207;42.182;24.308;2023-06-24T08:33:54;12.30;;;6.10;;
27839;SDS011;15207;42.182;24.308;2023-06-24T08:36:23;7.60;;;5.40;;
27839;SDS011;15207;42.182;24.308;2023-06-24T08:38:49;9.75;;;5.70;;
27839;SDS011;15207;42.182;24.308;2023-06-24T08:41:14;8.40;;;5.47;;
27839;SDS011;15207;42.182;24.308;2023-06-24T08:43:40;7.10;;;5.00;;
27839;SDS011;15207;42.182;24.308;2023-06-24T08:46:06;8.85;;;5.05;;
27839;SDS011;15207;42.182;24.308;2023-06-24T08:48:31;5.65;;;4.75;;
27839;SDS011;15207;42.182;24.308;2023-06-24T08:51:04;6.95;;;5.30;;
27839;SDS011;15207;42.182;24.308;2023-06-24T08:55:59;7.15;;;5.00;;
27839;SDS011;15207;42.182;24.308;2023-06-24T08:58:25;8.50;;;5.80;;
27839;SDS011;15207;42.182;24.308;2023-06-24T09:00:52;7.60;;;5.10;;
27839;SDS011;15207;42.182;24.308;2023-06-24T09:03:18;7.37;;;5.07;;
27839;SDS011;15207;42.182;24.308;2023-06-24T09:05:43;8.05;;;5.50;;
27839;SDS011;15207;42.182;24.308;2023-06-24T09:08:09;7.63;;;5.50;;
27839;SDS011;15207;42.182;24.308;2023-06-24T09:10:36;7.73;;;5.97;;
27839;SDS011;15207;42.182;24.308;2023-06-24T09:13:06;9.10;;;5.60;;
27839;SDS011;15207;42.182;24.308;2023-06-24T09:15:32;8.30;;;5.80;;
27839;SDS011;15207;42.182;24.308;2023-06-24T09:18:02;10.20;;;6.30;;
27839;SDS011;15207;42.182;24.308;2023-06-24T09:20:29;7.50;;;5.50;;
27839;SDS011;15207;42.182;24.308;2023-06-24T09:23:03;9.20;;;5.90;;
27839;SDS011;15207;42.182;24.308;2023-06-24T09:25:30;7.55;;;5.15;;
27839;SDS011;15207;42.182;24.308;2023-06-24T09:28:02;8.77;;;5.20;;
27839;SDS011;15207;42.182;24.308;2023-06-24T09:30:28;8.60;;;5.30;;
27839;SDS011;15207;42.182;24.308;2023-06-24T09:32:54;6.32;;;5.00;;
27839;SDS011;15207;42.182;24.308;2023-06-24T09:35:24;8.03;;;5.47;;
27839;SDS011;15207;42.182;24.308;2023-06-24T09:40:17;9.25;;;5.80;;
27839;SDS011;15207;42.182;24.308;2023-06-24T09:42:53;9.10;;;5.85;;
27839;SDS011;15207;42.182;24.308;2023-06-24T09:45:23;9.82;;;5.97;;
27839;SDS011;15207;42.182;24.308;2023-06-24T09:47:50;6.57;;;5.47;;
27839;SDS011;15207;42.182;24.308;2023-06-24T09:50:16;8.50;;;6.10;;
27839;SDS011;15207;42.182;24.308;2023-06-24T09:52:43;13.47;;;5.10;;
27839;SDS011;15207;42.182;24.308;2023-06-24T09:55:10;8.80;;;5.50;;
27839;SDS011;15207;42.182;24.308;2023-06-24T10:00:05;6.85;;;5.45;;
27839;SDS011;15207;42.182;24.308;2023-06-24T10:02:32;9.30;;;6.00;;
27839;SDS011;15207;42.182;24.308;2023-06-24T10:04:59;9.80;;;5.70;;
27839;SDS011;15207;42.182;24.308;2023-06-24T10:07:26;10.87;;;5.67;;
27839;SDS011;15207;42.182;24.308;2023-06-24T10:09:53;7.70;;;5.50;;
27839;SDS011;15207;42.182;24.308;2023-06-24T10:12:19;7.55;;;5.60;;
27839;SDS011;15207;42.182;24.308;2023-06-24T10:14:45;7.93;;;5.83;;
27839;SDS011;15207;42.182;24.308;2023-06-24T10:17:11;9.60;;;5.55;;
27839;SDS011;15207;42.182;24.308;2023-06-24T10:19:40;8.50;;;5.70;;
27839;SDS011;15207;42.182;24.308;2023-06-24T10:22:07;8.07;;;5.70;;
27839;SDS011;15207;42.182;24.308;2023-06-24T10:24:40;7.53;;;5.20;;
27839;SDS011;15207;42.182;24.308;2023-06-24T10:27:14;6.93;;;5.30;;
27839;SDS011;15207;42.182;24.308;2023-06-24T10:29:45;9.20;;;5.40;;
27839;SDS011;15207;42.182;24.308;2023-06-24T10:32:12;9.70;;;4.85;;
27839;SDS011;15207;42.182;24.308;2023-06-24T10:39:53;7.15;;;5.55;;
27839;SDS011;15207;42.182;24.308;2023-06-24T10:44:51;9.45;;;5.35;;
27839;SDS011;15207;42.182;24.308;2023-06-24T10:47:21;7.00;;;5.50;;
27839;SDS011;15207;42.182;24.308;2023-06-24T10:49:48;5.75;;;5.05;;
27839;SDS011;15207;42.182;24.308;2023-06-24T10:52:14;7.73;;;5.90;;
27839;SDS011;15207;42.182;24.308;2023-06-24T10:54:40;12.00;;;5.65;;
27839;SDS011;15207;42.182;24.308;2023-06-24T10:57:06;8.10;;;6.10;;
27839;SDS011;15207;42.182;24.308;2023-06-24T10:59:39;8.40;;;5.90;;
27839;SDS011;15207;42.182;24.308;2023-06-24T11:04:47;7.80;;;5.40;;
27839;SDS011;15207;42.182;24.308;2023-06-24T11:07:14;7.43;;;5.17;;
27839;SDS011;15207;42.182;24.308;2023-06-24T11:09:41;8.10;;;5.80;;
27839;SDS011;15207;42.182;24.308;2023-06-24T11:12:10;7.17;;;5.30;;
27839;SDS011;15207;42.182;24.308;2023-06-24T11:14:38;7.40;;;5.50;;
27839;SDS011;15207;42.182;24.308;2023-06-24T11:17:04;7.70;;;5.20;;
27839;SDS011;15207;42.182;24.308;2023-06-24T11:19:30;7.07;;;5.57;;
27839;SDS011;15207;42.182;24.308;2023-06-24T11:22:02;8.70;;;5.10;;
27839;SDS011;15207;42.182;24.308;2023-06-24T11:24:28;6.40;;;5.20;;
27839;SDS011;15207;42.182;24.308;2023-06-24T11:26:54;6.35;;;4.60;;
27839;SDS011;15207;42.182;24.308;2023-06-24T11:29:20;7.10;;;4.65;;
27839;SDS011;15207;42.182;24.308;2023-06-24T11:31:46;12.25;;;5.65;;
27839;SDS011;15207;42.182;24.308;2023-06-24T11:34:12;7.00;;;4.50;;
27839;SDS011;15207;42.182;24.308;2023-06-24T11:36:37;6.67;;;4.77;;
27839;SDS011;15207;42.182;24.308;2023-06-24T11:39:03;7.20;;;4.80;;
27839;SDS011;15207;42.182;24.308;2023-06-24T11:41:29;5.57;;;4.47;;
27839;SDS011;15207;42.182;24.308;2023-06-24T11:43:58;5.00;;;4.00;;
27839;SDS011;15207;42.182;24.308;2023-06-24T11:48:52;5.95;;;4.25;;
27839;SDS011;15207;42.182;24.308;2023-06-24T11:51:27;5.88;;;4.25;;
27839;SDS011;15207;42.182;24.308;2023-06-24T11:53:58;6.30;;;4.40;;
27839;SDS011;15207;42.182;24.308;2023-06-24T11:56:35;6.50;;;4.60;;
27839;SDS011;15207;42.182;24.308;2023-06-24T11:59:04;5.40;;;4.50;;
27839;SDS011;15207;42.182;24.308;2023-06-24T12:01:31;5.53;;;4.40;;
27839;SDS011;15207;42.182;24.308;2023-06-24T12:03:59;6.10;;;4.40;;
27839;SDS011;15207;42.182;24.308;2023-06-24T12:08:51;6.50;;;4.80;;
27839;SDS011;15207;42.182;24.308;2023-06-24T12:11:17;6.97;;;5.30;;
27839;SDS011;15207;42.182;24.308;2023-06-24T12:13:43;5.00;;;4.10;;
27839;SDS011;15207;42.182;24.308;2023-06-24T12:16:08;8.95;;;4.90;;
27839;SDS011;15207;42.182;24.308;2023-06-24T12:18:34;6.40;;;4.70;;
27839;SDS011;15207;42.182;24.308;2023-06-24T12:20:59;6.10;;;4.50;;
27839;SDS011;15207;42.182;24.308;2023-06-24T12:23:25;6.10;;;4.60;;
27839;SDS011;15207;42.182;24.308;2023-06-24T12:25:50;7.68;;;4.82;;
27839;SDS011;15207;42.182;24.308;2023-06-24T12:28:16;5.80;;;4.30;;
27839;SDS011;15207;42.182;24.308;2023-06-24T12:30:41;6.13;;;4.50;;
27839;SDS011;15207;42.182;24.308;2023-06-24T12:33:07;5.30;;;4.13;;
27839;SDS011;15207;42.182;24.308;2023-06-24T12:35:33;8.90;;;5.20;;
27839;SDS011;15207;42.182;24.308;2023-06-24T12:37:59;7.00;;;4.70;;
27839;SDS011;15207;42.182;24.308;2023-06-24T12:40:25;7.00;;;4.20;;
27839;SDS011;15207;42.182;24.308;2023-06-24T12:42:50;10.40;;;4.70;;
27839;SDS011;15207;42.182;24.308;2023-06-24T12:45:16;7.20;;;4.60;;
27839;SDS011;15207;42.182;24.308;2023-06-24T12:47:41;6.30;;;4.93;;
27839;SDS011;15207;42.182;24.308;2023-06-24T12:50:07;7.07;;;4.97;;
27839;SDS011;15207;42.182;24.308;2023-06-24T12:52:33;7.40;;;5.00;;
27839;SDS011;15207;42.182;24.308;2023-06-24T12:54:59;7.30;;;5.00;;
27839;SDS011;15207;42.182;24.308;2023-06-24T12:57:24;6.60;;;4.90;;
27839;SDS011;15207;42.182;24.308;2023-06-24T12:59:50;6.60;;;4.65;;
27839;SDS011;15207;42.182;24.308;2023-06-24T13:02:15;7.65;;;4.85;;
27839;SDS011;15207;42.182;24.308;2023-06-24T13:04:41;10.25;;;5.50;;
27839;SDS011;15207;42.182;24.308;2023-06-24T13:07:06;9.30;;;5.40;;
27839;SDS011;15207;42.182;24.308;2023-06-24T13:11:59;6.25;;;4.90;;
27839;SDS011;15207;42.182;24.308;2023-06-24T13:14:25;6.57;;;4.77;;
27839;SDS011;15207;42.182;24.308;2023-06-24T13:16:53;10.65;;;5.40;;
27839;SDS011;15207;42.182;24.308;2023-06-24T13:19:19;8.00;;;5.10;;
27839;SDS011;15207;42.182;24.308;2023-06-24T13:21:44;8.83;;;5.30;;
27839;SDS011;15207;42.182;24.308;2023-06-24T13:24:10;9.25;;;5.40;;
27839;SDS011;15207;42.182;24.308;2023-06-24T13:26:37;6.80;;;4.90;;
27839;SDS011;15207;42.182;24.308;2023-06-24T13:29:03;6.90;;;4.60;;
27839;SDS011;15207;42.182;24.308;2023-06-24T13:31:31;6.50;;;4.80;;
27839;SDS011;15207;42.182;24.308;2023-06-24T13:33:56;7.30;;;4.70;;
27839;SDS011;15207;42.182;24.308;2023-06-24T13:38:58;8.13;;;4.93;;
27839;SDS011;15207;42.182;24.308;2023-06-24T13:41:24;8.30;;;5.10;;
27839;SDS011;15207;42.182;24.308;2023-06-24T13:43:52;7.27;;;4.97;;
27839;SDS011;15207;42.182;24.308;2023-06-24T13:46:18;8.95;;;5.15;;
27839;SDS011;15207;42.182;24.308;2023-06-24T13:48:44;6.50;;;4.83;;
27839;SDS011;15207;42.182;24.308;2023-06-24T13:51:10;9.43;;;5.20;;
27839;SDS011;15207;42.182;24.308;2023-06-24T13:53:35;7.00;;;5.10;;
27839;SDS011;15207;42.182;24.308;2023-06-24T13:56:01;11.00;;;5.60;;
27839;SDS011;15207;42.182;24.308;2023-06-24T13:58:26;7.50;;;5.50;;
27839;SDS011;15207;42.182;24.308;2023-06-24T14:00:52;7.80;;;5.15;;
27839;SDS011;15207;42.182;24.308;2023-06-24T14:03:17;12.30;;;5.60;;
27839;SDS011;15207;42.182;24.308;2023-06-24T14:05:43;7.60;;;5.40;;
27839;SDS011;15207;42.182;24.308;2023-06-24T14:08:08;7.10;;;4.93;;
27839;SDS011;15207;42.182;24.308;2023-06-24T14:10:34;6.47;;;4.77;;
27839;SDS011;15207;42.182;24.308;2023-06-24T14:12:59;7.70;;;5.00;;
27839;SDS011;15207;42.182;24.308;2023-06-24T14:15:25;8.10;;;5.30;;
27839;SDS011;15207;42.182;24.308;2023-06-24T14:17:50;6.70;;;4.90;;
27839;SDS011;15207;42.182;24.308;2023-06-24T14:20:16;7.80;;;5.40;;
27839;SDS011;15207;42.182;24.308;2023-06-24T14:22:41;6.75;;;5.05;;
27839;SDS011;15207;42.182;24.308;2023-06-24T14:25:07;8.13;;;4.77;;
27839;SDS011;15207;42.182;24.308;2023-06-24T14:27:33;6.20;;;4.90;;
27839;SDS011;15207;42.182;24.308;2023-06-24T14:29:58;7.73;;;5.03;;
27839;SDS011;15207;42.182;24.308;2023-06-24T14:32:24;7.50;;;5.40;;
27839;SDS011;15207;42.182;24.308;2023-06-24T14:34:49;7.80;;;5.75;;
27839;SDS011;15207;42.182;24.308;2023-06-24T14:37:15;7.10;;;5.20;;
27839;SDS011;15207;42.182;24.308;2023-06-24T14:39:40;12.73;;;5.85;;
27839;SDS011;15207;42.182;24.308;2023-06-24T14:42:06;8.40;;;5.75;;
27839;SDS011;15207;42.182;24.308;2023-06-24T14:44:31;7.90;;;6.00;;
27839;SDS011;15207;42.182;24.308;2023-06-24T14:46:58;7.50;;;5.90;;
27839;SDS011;15207;42.182;24.308;2023-06-24T14:49:23;8.20;;;6.00;;
27839;SDS011;15207;42.182;24.308;2023-06-24T14:51:49;8.70;;;6.37;;
27839;SDS011;15207;42.182;24.308;2023-06-24T14:56:40;9.25;;;6.22;;
27839;SDS011;15207;42.182;24.308;2023-06-24T14:59:05;12.02;;;7.10;;
27839;SDS011;15207;42.182;24.308;2023-06-24T15:01:31;9.07;;;6.77;;
27839;SDS011;15207;42.182;24.308;2023-06-24T15:03:56;9.95;;;7.20;;
27839;SDS011;15207;42.182;24.308;2023-06-24T15:06:22;8.75;;;6.55;;
27839;SDS011;15207;42.182;24.308;2023-06-24T15:08:47;11.30;;;6.85;;
27839;SDS011;15207;42.182;24.308;2023-06-24T15:11:12;11.10;;;7.40;;
27839;SDS011;15207;42.182;24.308;2023-06-24T15:13:38;8.93;;;7.25;;
27839;SDS011;15207;42.182;24.308;2023-06-24T15:16:04;10.05;;;6.72;;
27839;SDS011;15207;42.182;24.308;2023-06-24T15:18:29;13.98;;;7.45;;
27839;SDS011;15207;42.182;24.308;2023-06-24T15:20:55;9.23;;;6.63;;
27839;SDS011;15207;42.182;24.308;2023-06-24T15:23:21;9.70;;;6.73;;
27839;SDS011;15207;42.182;24.308;2023-06-24T15:25:47;7.90;;;6.30;;
27839;SDS011;15207;42.182;24.308;2023-06-24T15:28:12;13.65;;;6.55;;